Wan Hai 510 — 9VJJ8 — position and weather

sailwx.info

Track history (hours):
 
Tides and Currents Weather Stations Pressure Air Temp Water Temp Dewpoint Dewpoint Depression Visibility Wind Speed Wind Dir Waves Ship Positions

Wan Hai 510

Last reported at 2016-Jul-24 21:27 UTC. Time now 2016-Jul-27 13:27 UTC.
Position N 01°08' E 103°44'.

Length 269 m; draft 10.9 m.

Type: Ship. MMSI: 565706755.

Date/timePositionNaut miles runAvg speedWind from/ knotsBaromVisibWave heightAir tempDewpointWater temp
2016-Jul-24 21:27N 01°08' E 103°44'9 9.9
2016-Jul-24 20:33N 01°13' E 103°52'3 3.4
2016-Jul-24 19:33N 01°16' E 103°51'0 0.0
2016-Jul-24 18:18N 01°16' E 103°51'0 0.0
2016-Jul-24 17:30N 01°16' E 103°51'0 0.0
2016-Jul-24 16:33N 01°16' E 103°51'0 0.0
2016-Jul-24 15:30N 01°16' E 103°51'0 0.0
2016-Jul-24 14:30N 01°16' E 103°51'0 0.0
2016-Jul-24 13:30N 01°16' E 103°51'0 0.0
2016-Jul-24 12:30N 01°16' E 103°51'0 0.0
2016-Jul-24 11:30N 01°16' E 103°51'0 0.1
2016-Jul-24 10:33N 01°16' E 103°51'6 5.9
2016-Jul-24 09:33N 01°15' E 103°57'  
2016-Jul-21 03:24N 22°21' E 114°03'911.0
2016-Jul-21 02:33N 22°24' E 113°53'3 2.8
2016-Jul-21 01:32N 22°27' E 113°54'0 0.0
2016-Jul-21 00:32N 22°27' E 113°54'0 0.0
2016-Jul-20 23:32N 22°27' E 113°54'0 0.0
2016-Jul-20 21:26N 22°27' E 113°54'0 0.0
2016-Jul-20 20:14N 22°27' E 113°54'0 0.0
2016-Jul-20 19:08N 22°27' E 113°54'0 0.0
2016-Jul-20 18:26N 22°27' E 113°54'0 0.0
2016-Jul-20 17:26N 22°27' E 113°54'12 1.2
2016-Jul-20 07:25N 22°20' E 114°04'0 0.1
2016-Jul-20 06:07N 22°20' E 114°04'0 0.1
2016-Jul-20 05:31N 22°20' E 114°04'2 1.8
2016-Jul-20 04:33N 22°19' E 114°05'2 0.2
2016-Jul-19 16:15N 22°20' E 114°08'2 3.2
2016-Jul-19 15:33N 22°19' E 114°06'32414.1
2016-Jul-18 16:32N 22°32' E 119°56'1413.8
2016-Jul-18 15:33N 22°33' E 120°11'8 1.1
2016-Jul-18 08:24N 22°33' E 120°20'0 0.0
2016-Jul-18 02:30N 22°33' E 120°20'0 0.0
2016-Jul-18 01:30N 22°33' E 120°20'0 0.0
2016-Jul-18 00:12N 22°33' E 120°20'0 0.0
2016-Jul-17 23:30N 22°33' E 120°20'0 0.0
2016-Jul-17 22:30N 22°33' E 120°20'0 0.0
2016-Jul-17 21:30N 22°33' E 120°20'0 0.0
2016-Jul-17 20:30N 22°33' E 120°20'0 0.0
2016-Jul-17 17:24N 22°33' E 120°20'0 0.0
2016-Jul-17 15:18N 22°33' E 120°20'0 0.0
2016-Jul-17 14:30N 22°33' E 120°20'0 0.0
2016-Jul-17 13:30N 22°33' E 120°20'0 0.0
2016-Jul-17 12:30N 22°33' E 120°20'0 0.0
2016-Jul-17 11:24N 22°33' E 120°20'0 0.0
2016-Jul-17 08:14N 22°33' E 120°20'1 2.2
2016-Jul-17 07:33N 22°33' E 120°18'7 6.9
2016-Jul-17 06:33N 22°29' E 120°12'5 2.3
2016-Jul-17 04:33N 22°27' E 120°08'6 5.8
2016-Jul-17 03:33N 22°24' E 120°03'5 5.2
2016-Jul-17 02:33N 22°20' E 119°58'  
Track history (hours):
 
Tides and Currents Weather Stations Pressure Air Temp Water Temp Dewpoint Dewpoint Depression Visibility Wind Speed Wind Dir Waves Ship Positions

Wan Hai 510

Last reported at 2016-Jul-24 21:27 UTC. Time now 2016-Jul-27 13:27 UTC.
Position N 01°08' E 103°44'.

Length 269 m; draft 10.9 m.

Type: Ship. MMSI: 565706755.

Date/timePositionNaut miles runAvg speedWind from/ knotsBaromVisibWave heightAir tempDewpointWater temp
2016-Jul-24 21:27N 01°08' E 103°44'9 9.9
2016-Jul-24 20:33N 01°13' E 103°52'3 3.4
2016-Jul-24 19:33N 01°16' E 103°51'0 0.0
2016-Jul-24 18:18N 01°16' E 103°51'0 0.0
2016-Jul-24 17:30N 01°16' E 103°51'0 0.0
2016-Jul-24 16:33N 01°16' E 103°51'0 0.0
2016-Jul-24 15:30N 01°16' E 103°51'0 0.0
2016-Jul-24 14:30N 01°16' E 103°51'0 0.0
2016-Jul-24 13:30N 01°16' E 103°51'0 0.0
2016-Jul-24 12:30N 01°16' E 103°51'0 0.0
2016-Jul-24 11:30N 01°16' E 103°51'0 0.1
2016-Jul-24 10:33N 01°16' E 103°51'6 5.9
2016-Jul-24 09:33N 01°15' E 103°57'  
2016-Jul-21 03:24N 22°21' E 114°03'911.0
2016-Jul-21 02:33N 22°24' E 113°53'3 2.8
2016-Jul-21 01:32N 22°27' E 113°54'0 0.0
2016-Jul-21 00:32N 22°27' E 113°54'0 0.0
2016-Jul-20 23:32N 22°27' E 113°54'0 0.0
2016-Jul-20 21:26N 22°27' E 113°54'0 0.0
2016-Jul-20 20:14N 22°27' E 113°54'0 0.0
2016-Jul-20 19:08N 22°27' E 113°54'0 0.0
2016-Jul-20 18:26N 22°27' E 113°54'0 0.0
2016-Jul-20 17:26N 22°27' E 113°54'12 1.2
2016-Jul-20 07:25N 22°20' E 114°04'0 0.1
2016-Jul-20 06:07N 22°20' E 114°04'0 0.1
2016-Jul-20 05:31N 22°20' E 114°04'2 1.8
2016-Jul-20 04:33N 22°19' E 114°05'2 0.2
2016-Jul-19 16:15N 22°20' E 114°08'2 3.2
2016-Jul-19 15:33N 22°19' E 114°06'32414.1
2016-Jul-18 16:32N 22°32' E 119°56'1413.8
2016-Jul-18 15:33N 22°33' E 120°11'8 1.1
2016-Jul-18 08:24N 22°33' E 120°20'0 0.0
2016-Jul-18 02:30N 22°33' E 120°20'0 0.0
2016-Jul-18 01:30N 22°33' E 120°20'0 0.0
2016-Jul-18 00:12N 22°33' E 120°20'0 0.0
2016-Jul-17 23:30N 22°33' E 120°20'0 0.0
2016-Jul-17 22:30N 22°33' E 120°20'0 0.0
2016-Jul-17 21:30N 22°33' E 120°20'0 0.0
2016-Jul-17 20:30N 22°33' E 120°20'0 0.0
2016-Jul-17 17:24N 22°33' E 120°20'0 0.0
2016-Jul-17 15:18N 22°33' E 120°20'0 0.0
2016-Jul-17 14:30N 22°33' E 120°20'0 0.0
2016-Jul-17 13:30N 22°33' E 120°20'0 0.0
2016-Jul-17 12:30N 22°33' E 120°20'0 0.0
2016-Jul-17 11:24N 22°33' E 120°20'0 0.0
2016-Jul-17 08:14N 22°33' E 120°20'1 2.2
2016-Jul-17 07:33N 22°33' E 120°18'7 6.9
2016-Jul-17 06:33N 22°29' E 120°12'5 2.3
2016-Jul-17 04:33N 22°27' E 120°08'6 5.8
2016-Jul-17 03:33N 22°24' E 120°03'5 5.2
2016-Jul-17 02:33N 22°20' E 119°58'  

Dump ship's entire track history